createdAt,value
2022-10-20T00:00:21.739Z,79.00
2022-10-20T00:02:48.460Z,79.10
2022-10-20T00:05:15.189Z,78.97
2022-10-20T00:07:41.786Z,78.86
2022-10-20T00:10:08.795Z,78.84
2022-10-20T00:12:37.564Z,78.76
2022-10-20T00:15:04.549Z,78.44
2022-10-20T00:17:31.205Z,78.65
2022-10-20T00:19:58.562Z,78.39
2022-10-20T00:22:25.207Z,78.18
2022-10-20T00:24:52.357Z,78.25
2022-10-20T00:27:19.006Z,78.41
2022-10-20T00:29:47.873Z,78.29
2022-10-20T00:32:14.529Z,78.20
2022-10-20T00:34:41.259Z,78.08
2022-10-20T00:37:07.908Z,78.41
2022-10-20T00:39:34.862Z,78.03
2022-10-20T00:42:05.492Z,77.86
2022-10-20T00:44:50.692Z,77.98
2022-10-20T00:47:21.061Z,78.10
2022-10-20T00:49:48.564Z,78.04
2022-10-20T00:52:18.625Z,78.10
2022-10-20T00:54:45.285Z,78.27
2022-10-20T00:57:12.497Z,78.22
2022-10-20T00:59:39.633Z,78.24
2022-10-20T01:02:07.614Z,78.22
2022-10-20T01:04:34.845Z,78.14
2022-10-20T01:07:01.521Z,78.34
2022-10-20T01:09:28.453Z,78.22
2022-10-20T01:12:07.282Z,78.22
2022-10-20T01:15:08.322Z,78.29
2022-10-20T01:17:52.743Z,78.35
2022-10-20T01:20:40.456Z,78.21
2022-10-20T01:23:35.006Z,78.12
2022-10-20T01:26:23.305Z,78.09
2022-10-20T01:29:00.074Z,78.15
2022-10-20T01:31:45.218Z,78.25
2022-10-20T01:34:27.778Z,78.21
2022-10-20T01:36:55.879Z,77.93
2022-10-20T01:39:31.894Z,77.72
2022-10-20T01:42:09.628Z,77.67
2022-10-20T01:44:37.410Z,77.46
2022-10-20T01:47:04.073Z,77.39
2022-10-20T01:49:30.737Z,77.59
2022-10-20T01:51:57.340Z,77.57
2022-10-20T01:54:26.403Z,77.71
2022-10-20T01:57:26.214Z,77.79
2022-10-20T02:00:00.229Z,77.90
2022-10-20T02:02:56.128Z,78.02
2022-10-20T02:05:29.047Z,78.04
2022-10-20T02:08:04.081Z,77.84
2022-10-20T02:10:35.597Z,77.90
2022-10-20T02:13:06.019Z,78.17
2022-10-20T02:15:33.496Z,78.18
2022-10-20T02:18:03.952Z,78.21
2022-10-20T02:20:31.754Z,77.99
2022-10-20T02:22:59.091Z,77.99
2022-10-20T02:25:26.733Z,78.12
2022-10-20T02:27:54.337Z,78.39
2022-10-20T02:30:21.364Z,78.42
2022-10-20T02:32:50.377Z,78.30
2022-10-20T02:35:22.822Z,78.25
2022-10-20T02:37:49.512Z,78.32
2022-10-20T02:40:16.250Z,78.23
2022-10-20T02:42:43.796Z,78.26
2022-10-20T02:45:11.169Z,78.18
2022-10-20T02:47:38.598Z,78.14
2022-10-20T02:50:06.336Z,77.99
2022-10-20T02:52:32.989Z,78.19
2022-10-20T02:54:59.674Z,78.16
2022-10-20T02:57:27.011Z,78.13
2022-10-20T02:59:53.758Z,78.36
2022-10-20T03:02:20.348Z,78.18
2022-10-20T03:04:46.961Z,78.27
2022-10-20T03:07:14.094Z,78.36
2022-10-20T03:09:40.724Z,78.39
2022-10-20T03:12:07.347Z,78.24
2022-10-20T03:14:33.938Z,78.28
2022-10-20T03:17:00.608Z,78.44
2022-10-20T03:19:27.263Z,78.13
2022-10-20T03:21:53.916Z,78.14
2022-10-20T03:24:20.523Z,78.05
2022-10-20T03:26:47.161Z,78.07
2022-10-20T03:29:13.802Z,78.20
2022-10-20T03:31:40.476Z,78.03
2022-10-20T03:34:07.210Z,78.03
2022-10-20T03:36:33.839Z,78.09
2022-10-20T03:39:00.481Z,78.13
2022-10-20T03:41:27.131Z,78.03
2022-10-20T03:43:53.719Z,78.10
2022-10-20T03:46:20.398Z,77.86
2022-10-20T03:48:47.025Z,78.08
2022-10-20T03:51:14.303Z,78.27
2022-10-20T03:53:40.928Z,78.27
2022-10-20T03:56:08.715Z,78.28
2022-10-20T03:58:35.475Z,78.44
2022-10-20T04:01:02.924Z,78.20
2022-10-20T04:03:29.554Z,78.15
2022-10-20T04:05:56.153Z,78.01
2022-10-20T04:08:22.803Z,77.94
2022-10-20T04:10:49.720Z,77.95
2022-10-20T04:13:16.304Z,77.93
2022-10-20T04:15:42.895Z,77.76
2022-10-20T04:18:09.573Z,77.74
2022-10-20T04:20:37.420Z,77.60
2022-10-20T04:23:06.026Z,77.57
2022-10-20T04:25:32.662Z,77.76
2022-10-20T04:28:00.119Z,77.53
2022-10-20T04:30:27.931Z,77.38
2022-10-20T04:32:54.500Z,77.47
2022-10-20T04:35:21.155Z,77.34
2022-10-20T04:37:47.769Z,77.65
2022-10-20T04:40:14.475Z,77.18
2022-10-20T04:42:41.050Z,77.19
2022-10-20T04:45:08.130Z,77.03
2022-10-20T04:47:35.147Z,77.20
2022-10-20T04:50:02.050Z,76.95
2022-10-20T04:52:29.447Z,77.00
2022-10-20T04:55:01.592Z,77.12
2022-10-20T04:57:28.218Z,76.98
2022-10-20T04:59:54.882Z,77.21
2022-10-20T05:02:21.520Z,77.10
2022-10-20T05:04:48.868Z,77.35
2022-10-20T05:07:16.189Z,77.41
2022-10-20T05:09:42.878Z,77.42
2022-10-20T05:12:09.511Z,77.54
2022-10-20T05:14:36.153Z,77.47
2022-10-20T05:17:05.239Z,77.60
2022-10-20T05:19:34.498Z,77.69
2022-10-20T05:22:02.997Z,77.56
2022-10-20T05:24:30.178Z,77.40
2022-10-20T05:26:56.984Z,77.45
2022-10-20T05:29:24.275Z,77.44
2022-10-20T05:31:51.051Z,77.54
2022-10-20T05:34:17.698Z,77.58
2022-10-20T05:36:44.352Z,77.61
2022-10-20T05:39:11.694Z,77.41
2022-10-20T05:41:39.103Z,77.38
2022-10-20T05:44:08.618Z,77.58
2022-10-20T05:46:38.421Z,77.61
2022-10-20T05:49:05.241Z,77.66
2022-10-20T05:51:35.981Z,77.67
2022-10-20T05:54:03.344Z,78.09
2022-10-20T05:56:31.056Z,78.61
2022-10-20T05:58:58.268Z,78.32
2022-10-20T06:01:27.351Z,78.12
2022-10-20T06:03:56.201Z,77.86
2022-10-20T06:06:25.469Z,77.82
2022-10-20T06:08:52.611Z,77.89
2022-10-20T06:11:19.985Z,77.81
2022-10-20T06:13:48.631Z,78.10
2022-10-20T06:16:23.988Z,78.20
2022-10-20T06:18:50.770Z,78.05
2022-10-20T06:21:20.086Z,78.31
2022-10-20T06:23:46.847Z,78.06
2022-10-20T06:26:17.710Z,78.04
2022-10-20T06:28:45.689Z,77.93
2022-10-20T06:31:19.174Z,77.80
2022-10-20T06:33:46.482Z,77.53
2022-10-20T06:36:13.812Z,77.57
2022-10-20T06:38:41.465Z,77.47
2022-10-20T06:41:14.051Z,77.35
2022-10-20T06:43:40.612Z,77.40
2022-10-20T06:46:09.205Z,77.37
2022-10-20T06:48:36.027Z,77.32
2022-10-20T06:51:09.727Z,76.83
2022-10-20T06:53:36.841Z,76.83
2022-10-20T06:56:15.010Z,77.03
2022-10-20T06:58:43.149Z,77.38
2022-10-20T07:01:17.664Z,77.63
2022-10-20T07:03:46.031Z,77.66
2022-10-20T07:06:18.675Z,77.22
2022-10-20T07:08:45.588Z,77.33
2022-10-20T07:11:15.395Z,77.24
2022-10-20T07:13:43.012Z,77.35
2022-10-20T07:16:12.834Z,77.37
2022-10-20T07:18:39.534Z,77.44
2022-10-20T07:21:09.102Z,77.68
2022-10-20T07:23:36.443Z,77.54
2022-10-20T07:26:04.208Z,77.14
2022-10-20T07:28:31.194Z,76.96
2022-10-20T07:30:59.822Z,76.63
2022-10-20T07:33:26.470Z,76.30
2022-10-20T07:35:53.232Z,76.24
2022-10-20T07:38:19.866Z,76.21
2022-10-20T07:40:46.535Z,75.84
2022-10-20T07:43:13.141Z,75.71
2022-10-20T07:45:40.048Z,75.31
2022-10-20T07:48:07.253Z,75.87
2022-10-20T07:50:33.994Z,75.63
2022-10-20T07:53:00.634Z,75.60
2022-10-20T07:55:38.574Z,75.56
2022-10-20T07:58:06.115Z,75.14
2022-10-20T08:00:32.780Z,74.98
2022-10-20T08:02:59.488Z,74.94
2022-10-20T08:05:26.906Z,74.87
2022-10-20T08:07:53.533Z,74.55
2022-10-20T08:10:20.219Z,74.73
2022-10-20T08:12:46.960Z,74.34
2022-10-20T08:15:14.042Z,74.63
2022-10-20T08:17:40.706Z,75.01
2022-10-20T08:20:14.874Z,74.84
2022-10-20T08:22:41.546Z,74.82
2022-10-20T08:25:12.511Z,74.39
2022-10-20T08:27:39.186Z,74.32
2022-10-20T08:30:22.947Z,74.47
2022-10-20T08:32:53.740Z,73.67
2022-10-20T08:35:22.133Z,73.55
2022-10-20T08:37:48.784Z,73.45
2022-10-20T08:40:29.772Z,72.70
2022-10-20T08:42:56.908Z,73.00
2022-10-20T08:45:26.121Z,73.07
2022-10-20T08:47:55.103Z,72.57
2022-10-20T08:50:22.488Z,72.78
2022-10-20T08:52:54.970Z,72.52
2022-10-20T08:55:24.870Z,72.27
2022-10-20T08:57:51.517Z,72.51
2022-10-20T09:00:21.812Z,72.61
2022-10-20T09:02:50.378Z,72.40
2022-10-20T09:05:21.100Z,71.97
2022-10-20T09:07:51.486Z,71.38
2022-10-20T09:10:22.735Z,71.38
2022-10-20T09:12:49.969Z,71.39
2022-10-20T09:15:17.981Z,71.29
2022-10-20T09:18:03.324Z,71.43
2022-10-20T09:20:53.957Z,71.05
2022-10-20T09:23:41.883Z,71.00
2022-10-20T09:26:30.574Z,69.89
2022-10-20T09:29:14.850Z,69.97
2022-10-20T09:31:43.160Z,70.41
2022-10-20T09:34:23.566Z,69.71
2022-10-20T09:36:52.198Z,69.63
2022-10-20T09:39:24.688Z,69.70
2022-10-20T09:41:51.468Z,69.39
2022-10-20T09:44:23.842Z,69.72
2022-10-20T09:46:51.692Z,69.29
2022-10-20T09:49:31.142Z,69.25
2022-10-20T09:51:58.055Z,69.24
2022-10-20T09:54:26.003Z,69.25
2022-10-20T09:56:53.262Z,69.15
2022-10-20T09:59:25.373Z,68.46
2022-10-20T10:01:57.420Z,69.25
2022-10-20T10:04:51.206Z,69.77
2022-10-20T10:07:27.018Z,69.76
2022-10-20T10:10:03.933Z,68.53
2022-10-20T10:12:35.952Z,68.31
2022-10-20T10:15:11.464Z,67.83
2022-10-20T10:17:40.565Z,68.00
2022-10-20T10:20:29.898Z,68.01
2022-10-20T10:23:18.309Z,67.54
2022-10-20T10:25:45.089Z,67.41
2022-10-20T10:28:28.689Z,66.80
2022-10-20T10:31:18.667Z,67.17
2022-10-20T10:33:45.494Z,66.73
2022-10-20T10:36:34.285Z,66.77
2022-10-20T10:39:02.206Z,65.57
2022-10-20T10:41:50.972Z,65.24
2022-10-20T10:44:40.879Z,65.63
2022-10-20T10:47:16.532Z,66.39
2022-10-20T10:49:55.588Z,66.45
2022-10-20T10:52:35.020Z,66.25
2022-10-20T10:55:47.125Z,66.34
2022-10-20T10:58:34.324Z,66.59
2022-10-20T11:01:19.443Z,66.22
2022-10-20T11:04:28.124Z,66.30
2022-10-20T11:07:14.828Z,66.03
2022-10-20T11:09:56.618Z,66.73
2022-10-20T11:12:48.055Z,67.05
2022-10-20T11:15:34.042Z,66.11
2022-10-20T11:18:37.886Z,66.41
2022-10-20T11:21:23.391Z,66.03
2022-10-20T11:24:27.142Z,67.28
2022-10-20T11:27:02.277Z,66.75
2022-10-20T11:29:34.640Z,67.17
2022-10-20T11:32:27.222Z,66.95
2022-10-20T11:35:04.741Z,66.89
2022-10-20T11:37:36.266Z,66.33
2022-10-20T11:40:09.105Z,66.37
2022-10-20T11:43:13.434Z,65.92
2022-10-20T11:45:39.955Z,66.11
2022-10-20T11:48:22.685Z,66.85
2022-10-20T11:51:13.676Z,66.46
2022-10-20T11:53:46.457Z,66.17
2022-10-20T11:56:26.074Z,65.91
2022-10-20T11:59:01.965Z,64.95
2022-10-20T12:01:54.516Z,66.34
2022-10-20T12:04:46.212Z,67.17
2022-10-20T12:07:24.906Z,67.83
2022-10-20T12:10:18.361Z,67.50
2022-10-20T12:13:26.778Z,67.63
2022-10-20T12:15:53.467Z,66.97
2022-10-20T12:18:33.689Z,66.60
2022-10-20T12:21:08.483Z,66.69
2022-10-20T12:23:48.965Z,66.68
2022-10-20T12:26:30.584Z,66.84
2022-10-20T12:28:57.594Z,66.82
2022-10-20T12:31:25.839Z,67.28
2022-10-20T12:33:53.427Z,67.36
2022-10-20T12:36:20.022Z,67.21
2022-10-20T12:38:49.765Z,67.39
2022-10-20T12:41:34.940Z,67.58
2022-10-20T12:44:15.662Z,67.86
2022-10-20T12:46:44.159Z,68.05
2022-10-20T12:49:22.784Z,68.12
2022-10-20T12:51:52.156Z,68.21
2022-10-20T12:54:48.700Z,68.25
2022-10-20T12:57:35.548Z,68.33
2022-10-20T13:00:04.216Z,68.73
2022-10-20T13:02:44.682Z,68.90
2022-10-20T13:05:14.306Z,69.45
2022-10-20T13:07:46.787Z,69.87
2022-10-20T13:10:31.784Z,69.83
2022-10-20T13:13:01.135Z,70.57
2022-10-20T13:15:42.747Z,71.76
2022-10-20T13:18:12.560Z,72.83
2022-10-20T13:20:57.951Z,74.03
2022-10-20T13:23:56.924Z,74.90
2022-10-20T13:26:45.256Z,75.52
2022-10-20T13:29:39.612Z,76.53
2022-10-20T13:32:32.107Z,76.80
2022-10-20T13:35:09.440Z,76.57
2022-10-20T13:37:47.098Z,76.77
2022-10-20T13:40:27.281Z,77.15
2022-10-20T13:42:59.823Z,77.50
2022-10-20T13:45:44.864Z,77.75
2022-10-20T13:48:53.380Z,77.76
2022-10-20T13:51:25.012Z,77.49
2022-10-20T13:53:54.618Z,77.64
2022-10-20T13:56:35.490Z,77.53
2022-10-20T13:59:06.373Z,77.29
2022-10-20T14:01:35.331Z,77.00
2022-10-20T14:04:02.291Z,77.00
2022-10-20T14:06:34.627Z,77.16
2022-10-20T14:09:12.376Z,77.06
2022-10-20T14:11:39.985Z,77.00
2022-10-20T14:14:06.665Z,77.15
2022-10-20T14:16:33.663Z,77.00
2022-10-20T14:19:09.297Z,77.03
2022-10-20T14:21:41.267Z,76.81
2022-10-20T14:24:14.155Z,76.69
2022-10-20T14:26:44.088Z,76.75
2022-10-20T14:29:14.725Z,77.16
2022-10-20T14:31:41.810Z,76.80
2022-10-20T14:34:19.951Z,76.69
2022-10-20T14:36:47.245Z,76.60
2022-10-20T14:39:22.715Z,76.57
2022-10-20T14:41:50.776Z,76.49
2022-10-20T14:44:30.949Z,76.30
2022-10-20T14:47:00.839Z,76.28
2022-10-20T14:49:30.268Z,76.58
2022-10-20T14:51:59.808Z,76.75
2022-10-20T14:54:27.768Z,76.66
2022-10-20T14:57:01.263Z,76.69
2022-10-20T14:59:33.351Z,77.03
2022-10-20T15:02:12.613Z,77.01
2022-10-20T15:04:43.218Z,76.28
2022-10-20T15:07:18.263Z,76.34
2022-10-20T15:09:53.703Z,76.70
2022-10-20T15:12:22.778Z,76.80
2022-10-20T15:14:54.752Z,76.92
2022-10-20T15:17:41.264Z,76.76
2022-10-20T15:20:30.517Z,76.64
2022-10-20T15:22:59.064Z,76.51
2022-10-20T15:25:31.097Z,76.92
2022-10-20T15:27:58.575Z,77.23
2022-10-20T15:30:26.087Z,77.14
2022-10-20T15:32:53.621Z,77.05
2022-10-20T15:35:22.875Z,77.16
2022-10-20T15:37:52.071Z,77.21
2022-10-20T15:40:19.784Z,77.27
2022-10-20T15:42:46.601Z,77.52
2022-10-20T15:45:16.940Z,76.97
2022-10-20T15:47:44.256Z,77.27
2022-10-20T15:50:11.281Z,77.18
2022-10-20T15:52:38.508Z,77.35
2022-10-20T15:55:22.617Z,77.35
2022-10-20T15:57:50.938Z,77.67
2022-10-20T16:00:18.362Z,77.72
2022-10-20T16:02:45.131Z,77.12
2022-10-20T16:05:12.286Z,76.98
2022-10-20T16:07:39.446Z,77.09
2022-10-20T16:10:07.699Z,76.95
2022-10-20T16:12:34.566Z,77.25
2022-10-20T16:15:01.538Z,77.43
2022-10-20T16:17:28.217Z,77.61
2022-10-20T16:19:54.873Z,77.86
2022-10-20T16:22:21.681Z,77.98
2022-10-20T16:24:48.518Z,78.13
2022-10-20T16:27:16.194Z,78.02
2022-10-20T16:29:45.162Z,78.00
2022-10-20T16:32:14.374Z,78.81
2022-10-20T16:34:41.010Z,78.74
2022-10-20T16:37:08.002Z,78.72
2022-10-20T16:39:34.593Z,78.40
2022-10-20T16:42:01.276Z,78.28
2022-10-20T16:44:28.012Z,78.08
2022-10-20T16:46:54.683Z,78.09
2022-10-20T16:49:21.393Z,78.19
2022-10-20T16:51:48.036Z,78.35
2022-10-20T16:54:14.702Z,78.34
2022-10-20T16:56:41.392Z,78.13
2022-10-20T16:59:08.351Z,77.86
2022-10-20T17:01:35.016Z,77.74
2022-10-20T17:04:01.645Z,77.99
2022-10-20T17:06:28.288Z,78.14
2022-10-20T17:08:55.002Z,78.13
2022-10-20T17:11:27.207Z,78.00
2022-10-20T17:13:54.305Z,77.68
2022-10-20T17:16:28.605Z,77.82
2022-10-20T17:18:57.047Z,77.84
2022-10-20T17:21:24.026Z,77.62
2022-10-20T17:23:50.614Z,77.61
2022-10-20T17:26:19.877Z,77.79
2022-10-20T17:28:47.029Z,78.01
2022-10-20T17:33:44.347Z,77.97
2022-10-20T17:36:14.238Z,77.84
2022-10-20T17:38:41.724Z,77.66
2022-10-20T17:41:10.860Z,77.33
2022-10-20T17:43:37.684Z,77.41
2022-10-20T17:46:10.792Z,77.54
2022-10-20T17:48:38.014Z,77.66
2022-10-20T17:51:10.915Z,77.59
2022-10-20T17:53:39.741Z,77.67
2022-10-20T17:56:31.431Z,77.70
2022-10-20T17:58:59.730Z,77.71
2022-10-20T18:01:31.086Z,78.02
2022-10-20T18:04:06.596Z,78.15
2022-10-20T18:06:34.813Z,77.78
2022-10-20T18:09:07.405Z,77.50
2022-10-20T18:11:35.420Z,77.70
2022-10-20T18:14:02.440Z,77.84
2022-10-20T18:16:31.413Z,77.92
2022-10-20T18:21:48.328Z,78.03
2022-10-20T18:24:16.373Z,77.99
2022-10-20T18:26:43.222Z,77.75
2022-10-20T18:29:10.670Z,77.65
2022-10-20T18:31:39.510Z,77.57
2022-10-20T18:34:18.268Z,77.94
2022-10-20T18:36:45.892Z,77.97
2022-10-20T18:39:13.584Z,78.05
2022-10-20T18:41:40.908Z,78.32
2022-10-20T18:44:11.740Z,78.38
2022-10-20T18:46:39.822Z,78.81
2022-10-20T18:49:07.730Z,78.98
2022-10-20T18:51:35.980Z,79.09
2022-10-20T18:54:03.376Z,79.40
2022-10-20T18:56:30.266Z,79.23
2022-10-20T18:59:02.831Z,79.24
2022-10-20T19:01:35.084Z,79.54
2022-10-20T19:04:02.612Z,79.55
2022-10-20T19:06:34.447Z,79.74
2022-10-20T19:09:03.664Z,79.91
2022-10-20T19:11:32.448Z,79.92
2022-10-20T19:13:59.826Z,79.87
2022-10-20T19:16:32.158Z,79.84
2022-10-20T19:19:00.446Z,80.03
2022-10-20T19:21:28.542Z,80.05
2022-10-20T19:24:04.450Z,80.14
2022-10-20T19:26:57.118Z,80.14
2022-10-20T19:29:32.831Z,80.70
2022-10-20T19:32:01.206Z,80.53
2022-10-20T19:34:31.357Z,80.50
2022-10-20T19:36:58.879Z,80.11
2022-10-20T19:39:28.418Z,80.22
2022-10-20T19:41:56.341Z,80.49
2022-10-20T19:44:23.261Z,81.00
2022-10-20T19:46:51.583Z,81.05
2022-10-20T19:49:19.305Z,81.14
2022-10-20T19:51:46.038Z,81.38
2022-10-20T19:54:13.142Z,81.34
2022-10-20T19:56:40.965Z,81.77
2022-10-20T19:59:08.263Z,81.32
2022-10-20T20:01:35.541Z,81.31
2022-10-20T20:04:02.331Z,81.76
2022-10-20T20:06:29.079Z,81.52
2022-10-20T20:09:02.297Z,81.31
2022-10-20T20:11:31.075Z,81.25
2022-10-20T20:13:58.923Z,81.48
2022-10-20T20:16:26.368Z,81.55
2022-10-20T20:18:53.491Z,81.39
2022-10-20T20:21:20.770Z,81.51
2022-10-20T20:23:59.000Z,81.45
2022-10-20T20:26:27.203Z,81.50
2022-10-20T20:28:54.960Z,81.51
2022-10-20T20:31:22.351Z,81.40
2022-10-20T20:33:49.575Z,81.16
2022-10-20T20:36:16.432Z,81.57
2022-10-20T20:38:43.139Z,81.68
2022-10-20T20:41:17.705Z,81.46
2022-10-20T20:43:47.177Z,81.43
2022-10-20T20:46:20.343Z,81.55
2022-10-20T20:48:47.113Z,81.33
2022-10-20T20:51:14.876Z,81.47
2022-10-20T20:53:41.826Z,81.52
2022-10-20T20:56:11.725Z,81.14
2022-10-20T20:58:38.613Z,81.08
2022-10-20T21:01:07.337Z,81.68
2022-10-20T21:03:34.695Z,81.78
2022-10-20T21:06:08.525Z,81.91
2022-10-20T21:08:39.640Z,81.93
2022-10-20T21:11:16.819Z,81.85
2022-10-20T21:13:44.608Z,81.65
2022-10-20T21:16:14.181Z,81.70
2022-10-20T21:18:42.993Z,81.58
2022-10-20T21:21:15.280Z,81.55
2022-10-20T21:23:42.209Z,81.39
2022-10-20T21:26:10.032Z,81.17
2022-10-20T21:28:37.173Z,81.07
2022-10-20T21:31:08.329Z,81.26
2022-10-20T21:33:36.232Z,81.64
2022-10-20T21:36:08.131Z,81.76
2022-10-20T21:38:36.154Z,81.33
2022-10-20T21:41:26.996Z,81.44
2022-10-20T21:43:55.839Z,81.42
2022-10-20T21:46:51.830Z,81.22
2022-10-20T21:49:21.477Z,81.19
2022-10-20T21:51:52.108Z,81.18
2022-10-20T21:57:08.740Z,81.55
2022-10-20T21:59:35.324Z,81.57
2022-10-20T22:02:02.087Z,81.71
2022-10-20T22:04:29.774Z,81.78
2022-10-20T22:06:57.143Z,82.18
2022-10-20T22:09:24.394Z,82.18
2022-10-20T22:11:55.084Z,82.18
2022-10-20T22:14:22.155Z,82.38
2022-10-20T22:16:48.829Z,81.93
2022-10-20T22:19:18.070Z,81.91
2022-10-20T22:21:47.072Z,82.17
2022-10-20T22:24:14.632Z,81.93
2022-10-20T22:26:41.729Z,82.23
2022-10-20T22:29:11.691Z,82.17
2022-10-20T22:31:39.668Z,81.95
2022-10-20T22:34:07.453Z,81.92
2022-10-20T22:36:34.470Z,81.86
2022-10-20T22:39:01.228Z,81.66
2022-10-20T22:41:28.169Z,81.58
2022-10-20T22:43:54.901Z,81.49
2022-10-20T22:46:21.492Z,81.49
2022-10-20T22:48:48.196Z,81.93
2022-10-20T22:51:15.518Z,81.60
2022-10-20T22:53:42.545Z,81.85
2022-10-20T22:56:11.967Z,81.60
2022-10-20T22:58:38.891Z,82.03
2022-10-20T23:01:10.090Z,81.61
2022-10-20T23:03:37.271Z,81.55
2022-10-20T23:06:09.416Z,81.70
2022-10-20T23:08:44.475Z,81.79
2022-10-20T23:11:11.818Z,81.87
2022-10-20T23:13:38.687Z,81.54
2022-10-20T23:16:05.950Z,81.30
2022-10-20T23:18:33.146Z,81.50
2022-10-20T23:20:59.942Z,81.57
2022-10-20T23:23:26.831Z,81.43
2022-10-20T23:25:53.560Z,81.47
2022-10-20T23:28:20.171Z,81.67
2022-10-20T23:30:47.562Z,81.60
2022-10-20T23:33:14.586Z,81.58
2022-10-20T23:35:41.322Z,81.79
2022-10-20T23:38:09.477Z,82.00
2022-10-20T23:40:36.792Z,81.88
2022-10-20T23:43:03.625Z,81.28
2022-10-20T23:45:31.837Z,81.58
2022-10-20T23:48:00.867Z,81.82
2022-10-20T23:50:27.468Z,81.70
2022-10-20T23:52:54.145Z,82.00
2022-10-20T23:55:20.857Z,82.23
2022-10-20T23:57:49.291Z,81.79
